sensor_id;sensor_type;location;lat;lon;timestamp;temperature;humidity
31819;DHT22;18384;48.860;9.188;2023-03-07T00:01:25;5.30;94.90
31819;DHT22;18384;48.860;9.188;2023-03-07T00:03:53;5.30;94.90
31819;DHT22;18384;48.860;9.188;2023-03-07T00:06:20;5.40;94.90
31819;DHT22;18384;48.860;9.188;2023-03-07T00:08:51;6.80;95.30
31819;DHT22;18384;48.860;9.188;2023-03-07T00:11:18;5.30;94.90
31819;DHT22;18384;48.860;9.188;2023-03-07T00:13:45;6.80;95.40
31819;DHT22;18384;48.860;9.188;2023-03-07T00:16:14;5.20;95.10
31819;DHT22;18384;48.860;9.188;2023-03-07T00:18:42;5.20;95.20
31819;DHT22;18384;48.860;9.188;2023-03-07T00:21:10;5.30;95.10
31819;DHT22;18384;48.860;9.188;2023-03-07T00:23:40;5.20;95.10
31819;DHT22;18384;48.860;9.188;2023-03-07T00:26:15;5.30;95.00
31819;DHT22;18384;48.860;9.188;2023-03-07T00:28:43;5.20;95.10
31819;DHT22;18384;48.860;9.188;2023-03-07T00:31:11;5.20;95.10
31819;DHT22;18384;48.860;9.188;2023-03-07T00:33:37;5.20;95.20
31819;DHT22;18384;48.860;9.188;2023-03-07T00:36:15;5.30;95.30
31819;DHT22;18384;48.860;9.188;2023-03-07T00:38:43;5.30;95.10
31819;DHT22;18384;48.860;9.188;2023-03-07T00:41:17;5.20;95.10
31819;DHT22;18384;48.860;9.188;2023-03-07T00:43:44;5.40;95.10
31819;DHT22;18384;48.860;9.188;2023-03-07T00:46:13;5.30;95.10
31819;DHT22;18384;48.860;9.188;2023-03-07T00:48:40;5.30;95.10
31819;DHT22;18384;48.860;9.188;2023-03-07T00:51:08;5.20;95.20
31819;DHT22;18384;48.860;9.188;2023-03-07T00:53:37;5.20;95.10
31819;DHT22;18384;48.860;9.188;2023-03-07T00:56:12;5.20;95.00
31819;DHT22;18384;48.860;9.188;2023-03-07T00:58:40;5.30;95.10
31819;DHT22;18384;48.860;9.188;2023-03-07T01:01:08;5.20;95.00
31819;DHT22;18384;48.860;9.188;2023-03-07T01:03:35;5.30;94.90
31819;DHT22;18384;48.860;9.188;2023-03-07T01:06:04;5.30;94.90
31819;DHT22;18384;48.860;9.188;2023-03-07T01:08:33;5.30;95.00
31819;DHT22;18384;48.860;9.188;2023-03-07T01:11:01;5.30;94.90
31819;DHT22;18384;48.860;9.188;2023-03-07T01:13:28;5.40;94.90
31819;DHT22;18384;48.860;9.188;2023-03-07T01:15:55;5.30;94.70
31819;DHT22;18384;48.860;9.188;2023-03-07T01:18:30;5.30;94.70
31819;DHT22;18384;48.860;9.188;2023-03-07T01:20:56;5.40;94.70
31819;DHT22;18384;48.860;9.188;2023-03-07T01:23:22;5.40;94.50
31819;DHT22;18384;48.860;9.188;2023-03-07T01:25:49;5.30;94.40
31819;DHT22;18384;48.860;9.188;2023-03-07T01:28:15;5.40;94.30
31819;DHT22;18384;48.860;9.188;2023-03-07T01:30:41;5.40;94.10
31819;DHT22;18384;48.860;9.188;2023-03-07T01:33:08;5.40;94.00
31819;DHT22;18384;48.860;9.188;2023-03-07T01:35:38;5.40;94.10
31819;DHT22;18384;48.860;9.188;2023-03-07T01:38:05;5.40;93.90
31819;DHT22;18384;48.860;9.188;2023-03-07T01:40:31;5.40;93.80
31819;DHT22;18384;48.860;9.188;2023-03-07T01:46:25;5.40;94.00
31819;DHT22;18384;48.860;9.188;2023-03-07T01:49:46;5.30;94.10
31819;DHT22;18384;48.860;9.188;2023-03-07T01:52:18;5.40;94.00
31819;DHT22;18384;48.860;9.188;2023-03-07T01:54:51;5.50;94.00
31819;DHT22;18384;48.860;9.188;2023-03-07T01:57:24;5.40;94.00
31819;DHT22;18384;48.860;9.188;2023-03-07T01:59:55;5.40;94.00
31819;DHT22;18384;48.860;9.188;2023-03-07T02:02:22;5.40;94.00
31819;DHT22;18384;48.860;9.188;2023-03-07T02:05:12;5.40;94.20
31819;DHT22;18384;48.860;9.188;2023-03-07T02:07:45;5.30;94.20
31819;DHT22;18384;48.860;9.188;2023-03-07T02:10:14;5.30;94.00
31819;DHT22;18384;48.860;9.188;2023-03-07T02:12:42;5.30;94.00
31819;DHT22;18384;48.860;9.188;2023-03-07T02:15:13;5.30;94.00
31819;DHT22;18384;48.860;9.188;2023-03-07T02:17:42;5.20;94.10
31819;DHT22;18384;48.860;9.188;2023-03-07T02:23:57;5.30;93.90
31819;DHT22;18384;48.860;9.188;2023-03-07T02:29:24;5.30;94.20
31819;DHT22;18384;48.860;9.188;2023-03-07T02:31:51;5.30;94.00
31819;DHT22;18384;48.860;9.188;2023-03-07T02:34:25;5.30;94.10
31819;DHT22;18384;48.860;9.188;2023-03-07T02:37:28;5.30;94.10
31819;DHT22;18384;48.860;9.188;2023-03-07T02:40:03;5.40;93.80
31819;DHT22;18384;48.860;9.188;2023-03-07T02:42:32;5.30;94.10
31819;DHT22;18384;48.860;9.188;2023-03-07T02:45:04;5.10;94.00
31819;DHT22;18384;48.860;9.188;2023-03-07T02:47:37;5.40;93.90
31819;DHT22;18384;48.860;9.188;2023-03-07T02:50:04;5.40;94.00
31819;DHT22;18384;48.860;9.188;2023-03-07T02:52:31;5.50;93.80
31819;DHT22;18384;48.860;9.188;2023-03-07T02:54:57;5.50;93.70
31819;DHT22;18384;48.860;9.188;2023-03-07T02:57:23;5.50;94.00
31819;DHT22;18384;48.860;9.188;2023-03-07T02:59:49;5.50;93.80
31819;DHT22;18384;48.860;9.188;2023-03-07T03:02:15;5.50;93.80
31819;DHT22;18384;48.860;9.188;2023-03-07T03:04:42;5.50;93.70
31819;DHT22;18384;48.860;9.188;2023-03-07T03:07:08;5.40;93.80
31819;DHT22;18384;48.860;9.188;2023-03-07T03:09:34;5.40;94.10
31819;DHT22;18384;48.860;9.188;2023-03-07T03:12:01;5.40;93.70
31819;DHT22;18384;48.860;9.188;2023-03-07T03:14:27;5.30;94.10
31819;DHT22;18384;48.860;9.188;2023-03-07T03:16:53;5.30;94.00
31819;DHT22;18384;48.860;9.188;2023-03-07T03:19:19;5.30;94.00
31819;DHT22;18384;48.860;9.188;2023-03-07T03:21:45;5.30;94.10
31819;DHT22;18384;48.860;9.188;2023-03-07T03:24:12;5.30;93.90
31819;DHT22;18384;48.860;9.188;2023-03-07T03:26:38;5.30;94.00
31819;DHT22;18384;48.860;9.188;2023-03-07T03:29:04;5.30;94.10
31819;DHT22;18384;48.860;9.188;2023-03-07T03:31:31;5.40;94.00
31819;DHT22;18384;48.860;9.188;2023-03-07T03:33:57;5.40;94.20
31819;DHT22;18384;48.860;9.188;2023-03-07T03:36:25;5.40;94.10
31819;DHT22;18384;48.860;9.188;2023-03-07T03:38:52;5.30;94.20
31819;DHT22;18384;48.860;9.188;2023-03-07T03:41:22;5.20;94.20
31819;DHT22;18384;48.860;9.188;2023-03-07T03:43:49;5.20;94.30
31819;DHT22;18384;48.860;9.188;2023-03-07T03:46:15;5.20;94.30
31819;DHT22;18384;48.860;9.188;2023-03-07T03:48:44;5.20;94.20
31819;DHT22;18384;48.860;9.188;2023-03-07T03:51:16;5.30;94.10
31819;DHT22;18384;48.860;9.188;2023-03-07T03:53:42;5.30;94.20
31819;DHT22;18384;48.860;9.188;2023-03-07T03:56:13;5.20;94.30
31819;DHT22;18384;48.860;9.188;2023-03-07T03:58:41;5.20;94.30
31819;DHT22;18384;48.860;9.188;2023-03-07T04:01:08;5.10;94.10
31819;DHT22;18384;48.860;9.188;2023-03-07T04:03:42;5.20;94.40
31819;DHT22;18384;48.860;9.188;2023-03-07T04:06:12;5.20;94.30
31819;DHT22;18384;48.860;9.188;2023-03-07T04:08:39;5.00;94.50
31819;DHT22;18384;48.860;9.188;2023-03-07T04:11:06;5.00;94.80
31819;DHT22;18384;48.860;9.188;2023-03-07T04:13:33;5.00;94.50
31819;DHT22;18384;48.860;9.188;2023-03-07T04:15:59;4.90;94.50
31819;DHT22;18384;48.860;9.188;2023-03-07T04:18:25;5.10;94.80
31819;DHT22;18384;48.860;9.188;2023-03-07T04:20:52;5.10;94.50
31819;DHT22;18384;48.860;9.188;2023-03-07T04:23:19;5.10;94.60
31819;DHT22;18384;48.860;9.188;2023-03-07T04:25:48;5.20;94.80
31819;DHT22;18384;48.860;9.188;2023-03-07T04:28:18;5.20;94.60
31819;DHT22;18384;48.860;9.188;2023-03-07T04:30:44;5.20;94.60
31819;DHT22;18384;48.860;9.188;2023-03-07T04:33:11;5.20;94.70
31819;DHT22;18384;48.860;9.188;2023-03-07T04:35:38;5.30;94.60
31819;DHT22;18384;48.860;9.188;2023-03-07T04:38:04;5.30;94.30
31819;DHT22;18384;48.860;9.188;2023-03-07T04:40:31;5.30;94.40
31819;DHT22;18384;48.860;9.188;2023-03-07T04:42:58;5.30;94.40
31819;DHT22;18384;48.860;9.188;2023-03-07T04:45:24;5.40;94.50
31819;DHT22;18384;48.860;9.188;2023-03-07T04:47:50;5.40;94.50
31819;DHT22;18384;48.860;9.188;2023-03-07T04:50:18;5.50;94.50
31819;DHT22;18384;48.860;9.188;2023-03-07T04:52:44;5.40;94.60
31819;DHT22;18384;48.860;9.188;2023-03-07T04:55:10;5.40;94.50
31819;DHT22;18384;48.860;9.188;2023-03-07T04:57:37;5.50;94.60
31819;DHT22;18384;48.860;9.188;2023-03-07T05:00:04;5.50;94.60
31819;DHT22;18384;48.860;9.188;2023-03-07T05:02:34;5.40;94.80
31819;DHT22;18384;48.860;9.188;2023-03-07T05:05:01;5.40;94.60
31819;DHT22;18384;48.860;9.188;2023-03-07T05:07:28;5.50;94.80
31819;DHT22;18384;48.860;9.188;2023-03-07T05:09:57;5.50;94.80
31819;DHT22;18384;48.860;9.188;2023-03-07T05:12:23;5.50;94.80
31819;DHT22;18384;48.860;9.188;2023-03-07T05:14:50;5.50;94.70
31819;DHT22;18384;48.860;9.188;2023-03-07T05:17:16;5.50;94.80
31819;DHT22;18384;48.860;9.188;2023-03-07T05:19:43;5.60;94.80
31819;DHT22;18384;48.860;9.188;2023-03-07T05:22:09;5.60;94.90
31819;DHT22;18384;48.860;9.188;2023-03-07T05:24:35;5.50;94.80
31819;DHT22;18384;48.860;9.188;2023-03-07T05:27:02;5.50;94.70
31819;DHT22;18384;48.860;9.188;2023-03-07T05:29:28;5.50;94.50
31819;DHT22;18384;48.860;9.188;2023-03-07T05:31:54;5.40;94.50
31819;DHT22;18384;48.860;9.188;2023-03-07T05:34:20;5.30;94.40
31819;DHT22;18384;48.860;9.188;2023-03-07T05:36:46;5.30;94.90
31819;DHT22;18384;48.860;9.188;2023-03-07T05:39:15;5.20;94.60
31819;DHT22;18384;48.860;9.188;2023-03-07T05:41:41;5.10;94.60
31819;DHT22;18384;48.860;9.188;2023-03-07T05:44:07;5.10;94.60
31819;DHT22;18384;48.860;9.188;2023-03-07T05:46:33;5.20;94.60
31819;DHT22;18384;48.860;9.188;2023-03-07T05:48:59;5.20;94.50
31819;DHT22;18384;48.860;9.188;2023-03-07T05:51:25;5.20;94.40
31819;DHT22;18384;48.860;9.188;2023-03-07T05:53:52;5.10;94.40
31819;DHT22;18384;48.860;9.188;2023-03-07T05:56:18;5.10;94.50
31819;DHT22;18384;48.860;9.188;2023-03-07T05:58:44;5.10;94.40
31819;DHT22;18384;48.860;9.188;2023-03-07T06:01:10;5.20;94.40
31819;DHT22;18384;48.860;9.188;2023-03-07T06:03:36;5.20;94.40
31819;DHT22;18384;48.860;9.188;2023-03-07T06:06:03;5.20;94.50
31819;DHT22;18384;48.860;9.188;2023-03-07T06:08:29;5.30;94.30
31819;DHT22;18384;48.860;9.188;2023-03-07T06:10:55;5.30;94.30
31819;DHT22;18384;48.860;9.188;2023-03-07T06:13:23;5.30;94.30
31819;DHT22;18384;48.860;9.188;2023-03-07T06:15:51;5.30;94.30
31819;DHT22;18384;48.860;9.188;2023-03-07T06:18:18;5.30;94.30
31819;DHT22;18384;48.860;9.188;2023-03-07T06:20:53;5.30;94.60
31819;DHT22;18384;48.860;9.188;2023-03-07T06:23:21;5.20;94.20
31819;DHT22;18384;48.860;9.188;2023-03-07T06:25:47;5.20;94.30
31819;DHT22;18384;48.860;9.188;2023-03-07T06:28:13;5.30;94.10
31819;DHT22;18384;48.860;9.188;2023-03-07T06:30:39;5.20;94.00
31819;DHT22;18384;48.860;9.188;2023-03-07T06:33:05;5.10;94.10
31819;DHT22;18384;48.860;9.188;2023-03-07T06:35:32;5.20;94.20
31819;DHT22;18384;48.860;9.188;2023-03-07T06:37:58;5.10;94.20
31819;DHT22;18384;48.860;9.188;2023-03-07T06:40:25;5.00;94.30
31819;DHT22;18384;48.860;9.188;2023-03-07T06:42:51;5.00;94.10
31819;DHT22;18384;48.860;9.188;2023-03-07T06:45:18;5.10;94.20
31819;DHT22;18384;48.860;9.188;2023-03-07T06:47:44;5.20;94.10
31819;DHT22;18384;48.860;9.188;2023-03-07T06:50:10;5.20;94.10
31819;DHT22;18384;48.860;9.188;2023-03-07T06:52:36;5.20;94.20
31819;DHT22;18384;48.860;9.188;2023-03-07T06:55:02;5.20;94.10
31819;DHT22;18384;48.860;9.188;2023-03-07T06:57:29;5.20;94.10
31819;DHT22;18384;48.860;9.188;2023-03-07T06:59:55;5.30;94.10
31819;DHT22;18384;48.860;9.188;2023-03-07T07:02:21;5.20;93.90
31819;DHT22;18384;48.860;9.188;2023-03-07T07:04:47;5.20;93.90
31819;DHT22;18384;48.860;9.188;2023-03-07T07:07:13;5.30;93.90
31819;DHT22;18384;48.860;9.188;2023-03-07T07:09:39;5.30;94.00
31819;DHT22;18384;48.860;9.188;2023-03-07T07:12:06;5.30;94.00
31819;DHT22;18384;48.860;9.188;2023-03-07T07:14:32;5.30;94.00
31819;DHT22;18384;48.860;9.188;2023-03-07T07:16:59;5.30;94.00
31819;DHT22;18384;48.860;9.188;2023-03-07T07:19:26;5.30;94.00
31819;DHT22;18384;48.860;9.188;2023-03-07T07:21:52;5.40;93.90
31819;DHT22;18384;48.860;9.188;2023-03-07T07:24:18;5.60;93.60
31819;DHT22;18384;48.860;9.188;2023-03-07T07:26:44;5.60;93.60
31819;DHT22;18384;48.860;9.188;2023-03-07T07:29:10;5.80;93.70
31819;DHT22;18384;48.860;9.188;2023-03-07T07:31:37;5.70;93.50
31819;DHT22;18384;48.860;9.188;2023-03-07T07:34:03;5.80;93.50
31819;DHT22;18384;48.860;9.188;2023-03-07T07:36:29;5.80;93.50
31819;DHT22;18384;48.860;9.188;2023-03-07T07:38:56;6.00;93.30
31819;DHT22;18384;48.860;9.188;2023-03-07T07:41:22;6.00;93.20
31819;DHT22;18384;48.860;9.188;2023-03-07T07:43:52;6.10;93.30
31819;DHT22;18384;48.860;9.188;2023-03-07T07:46:18;6.30;93.10
31819;DHT22;18384;48.860;9.188;2023-03-07T07:48:46;6.30;92.80
31819;DHT22;18384;48.860;9.188;2023-03-07T07:51:12;6.30;92.80
31819;DHT22;18384;48.860;9.188;2023-03-07T07:53:38;6.40;92.80
31819;DHT22;18384;48.860;9.188;2023-03-07T07:56:05;6.40;92.50
31819;DHT22;18384;48.860;9.188;2023-03-07T07:58:31;6.40;92.50
31819;DHT22;18384;48.860;9.188;2023-03-07T08:00:57;6.40;92.40
31819;DHT22;18384;48.860;9.188;2023-03-07T08:03:23;6.50;92.50
31819;DHT22;18384;48.860;9.188;2023-03-07T08:05:49;6.50;92.20
31819;DHT22;18384;48.860;9.188;2023-03-07T08:08:17;6.50;92.30
31819;DHT22;18384;48.860;9.188;2023-03-07T08:10:47;6.60;92.20
31819;DHT22;18384;48.860;9.188;2023-03-07T08:13:15;6.60;92.20
31819;DHT22;18384;48.860;9.188;2023-03-07T08:15:42;6.60;92.20
31819;DHT22;18384;48.860;9.188;2023-03-07T08:18:08;6.50;92.20
31819;DHT22;18384;48.860;9.188;2023-03-07T08:20:38;6.60;92.40
31819;DHT22;18384;48.860;9.188;2023-03-07T08:23:06;6.60;92.00
31819;DHT22;18384;48.860;9.188;2023-03-07T08:25:32;6.70;92.30
31819;DHT22;18384;48.860;9.188;2023-03-07T08:27:58;6.80;91.80
31819;DHT22;18384;48.860;9.188;2023-03-07T08:30:28;6.80;91.70
31819;DHT22;18384;48.860;9.188;2023-03-07T08:32:56;6.90;91.40
31819;DHT22;18384;48.860;9.188;2023-03-07T08:35:22;6.90;91.20
31819;DHT22;18384;48.860;9.188;2023-03-07T08:37:56;6.90;91.10
31819;DHT22;18384;48.860;9.188;2023-03-07T08:40:29;7.00;91.60
31819;DHT22;18384;48.860;9.188;2023-03-07T08:42:57;7.10;91.50
31819;DHT22;18384;48.860;9.188;2023-03-07T08:45:24;7.20;91.20
31819;DHT22;18384;48.860;9.188;2023-03-07T08:47:54;7.30;91.40
31819;DHT22;18384;48.860;9.188;2023-03-07T08:50:22;7.40;91.10
31819;DHT22;18384;48.860;9.188;2023-03-07T08:52:51;7.40;91.00
31819;DHT22;18384;48.860;9.188;2023-03-07T08:55:17;7.30;90.90
31819;DHT22;18384;48.860;9.188;2023-03-07T08:57:43;7.40;91.10
31819;DHT22;18384;48.860;9.188;2023-03-07T09:00:12;7.40;90.90
31819;DHT22;18384;48.860;9.188;2023-03-07T09:02:39;7.50;90.90
31819;DHT22;18384;48.860;9.188;2023-03-07T09:05:05;7.60;91.00
31819;DHT22;18384;48.860;9.188;2023-03-07T09:07:31;7.70;90.60
31819;DHT22;18384;48.860;9.188;2023-03-07T09:09:58;7.70;90.60
31819;DHT22;18384;48.860;9.188;2023-03-07T09:12:24;7.60;90.70
31819;DHT22;18384;48.860;9.188;2023-03-07T09:14:52;7.70;90.40
31819;DHT22;18384;48.860;9.188;2023-03-07T09:17:19;7.60;90.30
31819;DHT22;18384;48.860;9.188;2023-03-07T09:19:45;7.60;90.30
31819;DHT22;18384;48.860;9.188;2023-03-07T09:22:12;7.70;90.40
31819;DHT22;18384;48.860;9.188;2023-03-07T09:24:38;7.60;89.90
31819;DHT22;18384;48.860;9.188;2023-03-07T09:27:04;7.60;88.60
31819;DHT22;18384;48.860;9.188;2023-03-07T09:29:30;7.60;88.60
31819;DHT22;18384;48.860;9.188;2023-03-07T09:31:56;7.60;88.70
31819;DHT22;18384;48.860;9.188;2023-03-07T09:34:22;7.70;88.60
31819;DHT22;18384;48.860;9.188;2023-03-07T09:36:51;7.70;87.40
31819;DHT22;18384;48.860;9.188;2023-03-07T09:39:18;7.80;87.10
31819;DHT22;18384;48.860;9.188;2023-03-07T09:45:25;8.00;85.60
31819;DHT22;18384;48.860;9.188;2023-03-07T09:48:38;7.90;86.50
31819;DHT22;18384;48.860;9.188;2023-03-07T09:51:24;8.00;86.40
31819;DHT22;18384;48.860;9.188;2023-03-07T09:54:02;7.90;85.30
31819;DHT22;18384;48.860;9.188;2023-03-07T09:56:55;7.90;85.20
31819;DHT22;18384;48.860;9.188;2023-03-07T10:00:08;7.70;85.90
31819;DHT22;18384;48.860;9.188;2023-03-07T10:10:46;7.80;84.70
31819;DHT22;18384;48.860;9.188;2023-03-07T10:13:38;7.50;85.80
31819;DHT22;18384;48.860;9.188;2023-03-07T10:25:35;7.50;84.80
31819;DHT22;18384;48.860;9.188;2023-03-07T10:28:23;7.50;86.20
31819;DHT22;18384;48.860;9.188;2023-03-07T10:30:56;7.50;86.40
31819;DHT22;18384;48.860;9.188;2023-03-07T10:33:24;7.50;86.30
31819;DHT22;18384;48.860;9.188;2023-03-07T10:36:06;7.40;85.60
31819;DHT22;18384;48.860;9.188;2023-03-07T10:38:54;7.40;86.20
31819;DHT22;18384;48.860;9.188;2023-03-07T10:41:28;7.60;87.00
31819;DHT22;18384;48.860;9.188;2023-03-07T10:43:54;7.60;85.70
31819;DHT22;18384;48.860;9.188;2023-03-07T10:46:25;7.70;85.70
31819;DHT22;18384;48.860;9.188;2023-03-07T10:48:56;7.60;85.50
31819;DHT22;18384;48.860;9.188;2023-03-07T10:52:47;7.60;85.20
31819;DHT22;18384;48.860;9.188;2023-03-07T10:55:41;7.30;86.00
31819;DHT22;18384;48.860;9.188;2023-03-07T10:59:09;7.30;86.40
31819;DHT22;18384;48.860;9.188;2023-03-07T11:01:37;7.30;86.00
31819;DHT22;18384;48.860;9.188;2023-03-07T11:04:21;7.30;86.70
31819;DHT22;18384;48.860;9.188;2023-03-07T11:06:53;7.30;87.20
31819;DHT22;18384;48.860;9.188;2023-03-07T11:09:34;7.30;86.90
31819;DHT22;18384;48.860;9.188;2023-03-07T11:12:10;7.20;85.20
31819;DHT22;18384;48.860;9.188;2023-03-07T11:14:55;7.10;84.80
31819;DHT22;18384;48.860;9.188;2023-03-07T11:17:38;7.10;86.20
31819;DHT22;18384;48.860;9.188;2023-03-07T11:23:38;7.10;85.80
31819;DHT22;18384;48.860;9.188;2023-03-07T11:26:19;7.20;85.90
31819;DHT22;18384;48.860;9.188;2023-03-07T11:28:47;7.20;84.30
31819;DHT22;18384;48.860;9.188;2023-03-07T11:31:37;7.20;84.20
31819;DHT22;18384;48.860;9.188;2023-03-07T11:34:39;7.10;84.30
31819;DHT22;18384;48.860;9.188;2023-03-07T11:37:44;7.20;84.60
31819;DHT22;18384;48.860;9.188;2023-03-07T11:41:54;7.30;83.60
31819;DHT22;18384;48.860;9.188;2023-03-07T11:44:53;7.30;82.90
31819;DHT22;18384;48.860;9.188;2023-03-07T11:47:51;7.30;82.70
31819;DHT22;18384;48.860;9.188;2023-03-07T11:50:31;7.30;82.90
31819;DHT22;18384;48.860;9.188;2023-03-07T11:53:23;7.40;82.90
31819;DHT22;18384;48.860;9.188;2023-03-07T11:56:24;7.40;83.00
31819;DHT22;18384;48.860;9.188;2023-03-07T12:06:07;7.40;83.40
31819;DHT22;18384;48.860;9.188;2023-03-07T12:15:34;7.60;83.10
31819;DHT22;18384;48.860;9.188;2023-03-07T12:18:52;7.60;82.30
31819;DHT22;18384;48.860;9.188;2023-03-07T12:24:27;7.60;82.80
31819;DHT22;18384;48.860;9.188;2023-03-07T12:27:10;7.70;81.90
31819;DHT22;18384;48.860;9.188;2023-03-07T12:29:46;7.70;82.80
31819;DHT22;18384;48.860;9.188;2023-03-07T12:32:23;7.70;82.30
31819;DHT22;18384;48.860;9.188;2023-03-07T12:35:28;7.70;82.60
31819;DHT22;18384;48.860;9.188;2023-03-07T12:38:15;7.70;82.40
31819;DHT22;18384;48.860;9.188;2023-03-07T12:41:23;7.80;82.80
31819;DHT22;18384;48.860;9.188;2023-03-07T12:44:16;7.90;82.30
31819;DHT22;18384;48.860;9.188;2023-03-07T12:47:15;8.00;81.40
31819;DHT22;18384;48.860;9.188;2023-03-07T12:53:51;8.20;82.50
31819;DHT22;18384;48.860;9.188;2023-03-07T12:56:25;8.20;81.00
31819;DHT22;18384;48.860;9.188;2023-03-07T12:59:14;8.30;81.70
31819;DHT22;18384;48.860;9.188;2023-03-07T13:02:42;8.30;81.50
31819;DHT22;18384;48.860;9.188;2023-03-07T13:05:19;8.50;81.10
31819;DHT22;18384;48.860;9.188;2023-03-07T13:07:46;8.50;80.90
31819;DHT22;18384;48.860;9.188;2023-03-07T13:10:17;8.60;80.20
31819;DHT22;18384;48.860;9.188;2023-03-07T13:12:45;8.60;81.20
31819;DHT22;18384;48.860;9.188;2023-03-07T13:16:01;8.40;81.20
31819;DHT22;18384;48.860;9.188;2023-03-07T13:18:30;8.50;80.60
31819;DHT22;18384;48.860;9.188;2023-03-07T13:21:57;8.60;80.70
31819;DHT22;18384;48.860;9.188;2023-03-07T13:24:36;8.60;80.30
31819;DHT22;18384;48.860;9.188;2023-03-07T13:27:17;8.60;80.60
31819;DHT22;18384;48.860;9.188;2023-03-07T13:31:44;8.70;80.20
31819;DHT22;18384;48.860;9.188;2023-03-07T13:34:53;8.60;80.60
31819;DHT22;18384;48.860;9.188;2023-03-07T13:41:03;8.30;81.00
31819;DHT22;18384;48.860;9.188;2023-03-07T13:43:54;8.20;81.50
31819;DHT22;18384;48.860;9.188;2023-03-07T13:46:44;8.20;81.80
31819;DHT22;18384;48.860;9.188;2023-03-07T13:49:32;8.20;82.00
31819;DHT22;18384;48.860;9.188;2023-03-07T13:52:31;8.20;80.70
31819;DHT22;18384;48.860;9.188;2023-03-07T13:55:01;8.20;80.70
31819;DHT22;18384;48.860;9.188;2023-03-07T13:57:36;8.20;80.80
31819;DHT22;18384;48.860;9.188;2023-03-07T14:00:20;8.20;80.60
31819;DHT22;18384;48.860;9.188;2023-03-07T14:02:49;8.20;80.30
31819;DHT22;18384;48.860;9.188;2023-03-07T14:05:16;8.20;79.90
31819;DHT22;18384;48.860;9.188;2023-03-07T14:07:42;8.20;79.80
31819;DHT22;18384;48.860;9.188;2023-03-07T14:11:21;8.20;80.20
31819;DHT22;18384;48.860;9.188;2023-03-07T14:15:46;8.20;80.60
31819;DHT22;18384;48.860;9.188;2023-03-07T14:19:10;8.40;79.90
31819;DHT22;18384;48.860;9.188;2023-03-07T14:22:01;8.50;81.10
31819;DHT22;18384;48.860;9.188;2023-03-07T14:24:56;8.50;81.20
31819;DHT22;18384;48.860;9.188;2023-03-07T14:27:53;8.60;81.10
31819;DHT22;18384;48.860;9.188;2023-03-07T14:30:32;8.60;80.80
31819;DHT22;18384;48.860;9.188;2023-03-07T14:32:59;8.60;79.30
31819;DHT22;18384;48.860;9.188;2023-03-07T14:35:38;8.70;79.30
31819;DHT22;18384;48.860;9.188;2023-03-07T14:38:07;8.70;79.90
31819;DHT22;18384;48.860;9.188;2023-03-07T14:40:54;8.80;78.80
31819;DHT22;18384;48.860;9.188;2023-03-07T14:53:04;8.70;79.70
31819;DHT22;18384;48.860;9.188;2023-03-07T14:55:42;8.80;79.30
31819;DHT22;18384;48.860;9.188;2023-03-07T14:58:19;8.80;79.40
31819;DHT22;18384;48.860;9.188;2023-03-07T15:01:10;8.90;78.70
31819;DHT22;18384;48.860;9.188;2023-03-07T15:03:52;8.90;78.60
31819;DHT22;18384;48.860;9.188;2023-03-07T15:06:23;9.00;79.60
31819;DHT22;18384;48.860;9.188;2023-03-07T15:08:52;8.90;78.80
31819;DHT22;18384;48.860;9.188;2023-03-07T15:11:29;8.90;78.50
31819;DHT22;18384;48.860;9.188;2023-03-07T15:14:15;8.80;79.40
31819;DHT22;18384;48.860;9.188;2023-03-07T15:16:48;8.80;79.60
31819;DHT22;18384;48.860;9.188;2023-03-07T15:19:37;8.70;79.30
31819;DHT22;18384;48.860;9.188;2023-03-07T15:22:15;8.60;80.00
31819;DHT22;18384;48.860;9.188;2023-03-07T15:24:50;8.50;80.90
31819;DHT22;18384;48.860;9.188;2023-03-07T15:27:28;8.50;81.30
31819;DHT22;18384;48.860;9.188;2023-03-07T15:29:57;8.50;80.50
31819;DHT22;18384;48.860;9.188;2023-03-07T15:32:38;8.40;80.30
31819;DHT22;18384;48.860;9.188;2023-03-07T15:35:16;8.40;81.10
31819;DHT22;18384;48.860;9.188;2023-03-07T15:37:59;8.40;81.40
31819;DHT22;18384;48.860;9.188;2023-03-07T15:40:33;8.30;81.30
31819;DHT22;18384;48.860;9.188;2023-03-07T15:43:43;8.20;81.60
31819;DHT22;18384;48.860;9.188;2023-03-07T15:46:16;8.20;82.00
31819;DHT22;18384;48.860;9.188;2023-03-07T15:48:53;8.10;82.00
31819;DHT22;18384;48.860;9.188;2023-03-07T15:51:21;8.10;82.20
31819;DHT22;18384;48.860;9.188;2023-03-07T15:54:03;8.10;82.20
31819;DHT22;18384;48.860;9.188;2023-03-07T15:56:43;8.20;82.50
31819;DHT22;18384;48.860;9.188;2023-03-07T15:59:21;8.30;82.40
31819;DHT22;18384;48.860;9.188;2023-03-07T16:01:53;8.30;82.50
31819;DHT22;18384;48.860;9.188;2023-03-07T16:04:38;8.30;82.20
31819;DHT22;18384;48.860;9.188;2023-03-07T16:07:04;8.40;82.90
31819;DHT22;18384;48.860;9.188;2023-03-07T16:09:40;8.40;82.60
31819;DHT22;18384;48.860;9.188;2023-03-07T16:12:15;8.40;82.80
31819;DHT22;18384;48.860;9.188;2023-03-07T16:14:43;8.40;82.40
31819;DHT22;18384;48.860;9.188;2023-03-07T16:17:20;8.40;82.40
31819;DHT22;18384;48.860;9.188;2023-03-07T16:19:52;8.30;82.30
31819;DHT22;18384;48.860;9.188;2023-03-07T16:22:18;8.20;82.60
31819;DHT22;18384;48.860;9.188;2023-03-07T16:24:45;8.20;82.80
31819;DHT22;18384;48.860;9.188;2023-03-07T16:27:21;8.20;83.60
31819;DHT22;18384;48.860;9.188;2023-03-07T16:29:51;8.20;83.80
31819;DHT22;18384;48.860;9.188;2023-03-07T16:32:20;8.10;83.30
31819;DHT22;18384;48.860;9.188;2023-03-07T16:34:46;8.10;83.60
31819;DHT22;18384;48.860;9.188;2023-03-07T16:37:15;8.10;83.50
31819;DHT22;18384;48.860;9.188;2023-03-07T16:39:41;8.00;83.60
31819;DHT22;18384;48.860;9.188;2023-03-07T16:42:21;8.00;83.90
31819;DHT22;18384;48.860;9.188;2023-03-07T16:44:47;7.90;83.90
31819;DHT22;18384;48.860;9.188;2023-03-07T16:47:16;7.80;84.40
31819;DHT22;18384;48.860;9.188;2023-03-07T16:49:43;7.80;84.30
31819;DHT22;18384;48.860;9.188;2023-03-07T16:52:12;7.80;85.20
31819;DHT22;18384;48.860;9.188;2023-03-07T16:54:39;7.70;85.10
31819;DHT22;18384;48.860;9.188;2023-03-07T16:57:05;7.70;84.60
31819;DHT22;18384;48.860;9.188;2023-03-07T16:59:34;7.60;84.90
31819;DHT22;18384;48.860;9.188;2023-03-07T17:02:13;7.60;85.70
31819;DHT22;18384;48.860;9.188;2023-03-07T17:04:41;7.60;85.70
31819;DHT22;18384;48.860;9.188;2023-03-07T17:07:18;7.60;85.20
31819;DHT22;18384;48.860;9.188;2023-03-07T17:09:46;7.60;85.10
31819;DHT22;18384;48.860;9.188;2023-03-07T17:12:13;7.60;85.20
31819;DHT22;18384;48.860;9.188;2023-03-07T17:14:41;7.50;84.90
31819;DHT22;18384;48.860;9.188;2023-03-07T17:17:15;7.60;85.10
31819;DHT22;18384;48.860;9.188;2023-03-07T17:19:43;7.50;85.10
31819;DHT22;18384;48.860;9.188;2023-03-07T17:22:09;7.50;85.30
31819;DHT22;18384;48.860;9.188;2023-03-07T17:24:35;7.50;85.00
31819;DHT22;18384;48.860;9.188;2023-03-07T17:27:01;7.50;85.40
31819;DHT22;18384;48.860;9.188;2023-03-07T17:30:01;7.50;85.20
31819;DHT22;18384;48.860;9.188;2023-03-07T17:32:27;7.50;85.10
31819;DHT22;18384;48.860;9.188;2023-03-07T17:34:53;7.50;85.10
31819;DHT22;18384;48.860;9.188;2023-03-07T17:37:19;7.40;85.30